sensor_id;sensor_type;location;lat;lon;timestamp;pressure;altitude;pressure_sealevel;temperature;humidity
75497;BME280;64074;47.540;19.072;2023-09-30T00:02:32;101106.78;;;16.34;67.59
75497;BME280;64074;47.540;19.072;2023-09-30T00:05:45;101105.56;;;16.48;67.56
75497;BME280;64074;47.540;19.072;2023-09-30T00:08:56;101101.22;;;16.47;67.24
75497;BME280;64074;47.540;19.072;2023-09-30T00:12:26;101098.28;;;16.66;66.57
75497;BME280;64074;47.540;19.072;2023-09-30T00:16:02;101098.88;;;16.63;66.40
75497;BME280;64074;47.540;19.072;2023-09-30T00:19:08;101089.41;;;16.69;66.56
75497;BME280;64074;47.540;19.072;2023-09-30T00:22:14;101101.53;;;16.46;67.75
75497;BME280;64074;47.540;19.072;2023-09-30T00:25:22;101096.06;;;16.46;67.29
75497;BME280;64074;47.540;19.072;2023-09-30T00:28:34;101095.44;;;16.49;67.31
75497;BME280;64074;47.540;19.072;2023-09-30T00:31:45;101093.47;;;16.41;66.92
75497;BME280;64074;47.540;19.072;2023-09-30T00:35:07;101089.06;;;16.62;66.60
75497;BME280;64074;47.540;19.072;2023-09-30T00:38:22;101087.81;;;16.68;66.53
75497;BME280;64074;47.540;19.072;2023-09-30T00:41:40;101084.19;;;16.59;66.59
75497;BME280;64074;47.540;19.072;2023-09-30T00:44:49;101079.84;;;16.58;67.06
75497;BME280;64074;47.540;19.072;2023-09-30T00:48:01;101079.63;;;16.37;67.81
75497;BME280;64074;47.540;19.072;2023-09-30T00:51:17;101082.06;;;16.47;67.65
75497;BME280;64074;47.540;19.072;2023-09-30T00:54:24;101075.06;;;16.33;68.02
75497;BME280;64074;47.540;19.072;2023-09-30T00:57:31;101081.47;;;16.19;68.81
75497;BME280;64074;47.540;19.072;2023-09-30T01:00:42;101082.00;;;16.30;69.13
75497;BME280;64074;47.540;19.072;2023-09-30T01:03:51;101080.03;;;16.22;69.51
75497;BME280;64074;47.540;19.072;2023-09-30T01:07:02;101078.44;;;16.29;69.66
75497;BME280;64074;47.540;19.072;2023-09-30T01:10:11;101072.97;;;16.29;70.09
75497;BME280;64074;47.540;19.072;2023-09-30T01:13:23;101078.72;;;16.19;70.21
75497;BME280;64074;47.540;19.072;2023-09-30T01:16:33;101075.84;;;16.24;70.15
75497;BME280;64074;47.540;19.072;2023-09-30T01:19:43;101071.16;;;16.16;70.01
75497;BME280;64074;47.540;19.072;2023-09-30T01:22:58;101080.25;;;16.03;70.77
75497;BME280;64074;47.540;19.072;2023-09-30T01:26:11;101077.97;;;15.96;70.81
75497;BME280;64074;47.540;19.072;2023-09-30T01:29:16;101073.50;;;16.09;69.96
75497;BME280;64074;47.540;19.072;2023-09-30T01:32:21;101067.44;;;16.12;69.32
75497;BME280;64074;47.540;19.072;2023-09-30T01:35:32;101070.91;;;16.04;69.95
75497;BME280;64074;47.540;19.072;2023-09-30T01:38:43;101081.78;;;16.18;69.48
75497;BME280;64074;47.540;19.072;2023-09-30T01:41:56;101078.66;;;16.11;69.46
75497;BME280;64074;47.540;19.072;2023-09-30T01:45:09;101074.63;;;16.08;69.76
75497;BME280;64074;47.540;19.072;2023-09-30T01:48:22;101073.09;;;16.16;69.52
75497;BME280;64074;47.540;19.072;2023-09-30T01:51:29;101066.31;;;16.13;69.27
75497;BME280;64074;47.540;19.072;2023-09-30T01:54:36;101067.94;;;16.14;69.12
75497;BME280;64074;47.540;19.072;2023-09-30T01:57:47;101057.03;;;15.92;69.64
75497;BME280;64074;47.540;19.072;2023-09-30T02:01:03;101064.28;;;15.96;69.08
75497;BME280;64074;47.540;19.072;2023-09-30T02:04:14;101061.69;;;15.91;68.78
75497;BME280;64074;47.540;19.072;2023-09-30T02:07:43;101060.72;;;15.87;68.36
75497;BME280;64074;47.540;19.072;2023-09-30T02:11:10;101066.19;;;15.87;68.84
75497;BME280;64074;47.540;19.072;2023-09-30T02:14:27;101069.50;;;15.84;69.12
75497;BME280;64074;47.540;19.072;2023-09-30T02:17:31;101069.59;;;15.93;68.63
75497;BME280;64074;47.540;19.072;2023-09-30T02:20:42;101065.72;;;15.94;68.41
75497;BME280;64074;47.540;19.072;2023-09-30T02:23:49;101064.03;;;15.84;68.68
75497;BME280;64074;47.540;19.072;2023-09-30T02:26:56;101067.34;;;15.73;68.93
75497;BME280;64074;47.540;19.072;2023-09-30T02:30:06;101058.19;;;15.55;70.19
75497;BME280;64074;47.540;19.072;2023-09-30T02:33:45;101056.41;;;15.50;70.18
75497;BME280;64074;47.540;19.072;2023-09-30T02:37:18;101055.25;;;15.65;69.75
75497;BME280;64074;47.540;19.072;2023-09-30T02:40:33;101055.34;;;15.60;69.76
75497;BME280;64074;47.540;19.072;2023-09-30T02:43:53;101050.16;;;15.72;69.64
75497;BME280;64074;47.540;19.072;2023-09-30T02:47:04;101050.97;;;15.73;69.76
75497;BME280;64074;47.540;19.072;2023-09-30T02:50:22;101063.03;;;15.58;70.06
75497;BME280;64074;47.540;19.072;2023-09-30T02:53:35;101057.81;;;15.25;72.92
75497;BME280;64074;47.540;19.072;2023-09-30T02:57:12;101066.88;;;15.34;72.31
75497;BME280;64074;47.540;19.072;2023-09-30T03:00:30;101060.00;;;15.37;72.34
75497;BME280;64074;47.540;19.072;2023-09-30T03:03:39;101062.81;;;15.46;72.34
75497;BME280;64074;47.540;19.072;2023-09-30T03:06:46;101063.97;;;15.53;71.94
75497;BME280;64074;47.540;19.072;2023-09-30T03:09:55;101061.06;;;15.50;72.12
75497;BME280;64074;47.540;19.072;2023-09-30T03:13:05;101060.59;;;15.34;72.99
75497;BME280;64074;47.540;19.072;2023-09-30T03:16:13;101069.88;;;15.47;72.33
75497;BME280;64074;47.540;19.072;2023-09-30T03:19:27;101062.41;;;15.16;73.74
75497;BME280;64074;47.540;19.072;2023-09-30T03:22:42;101067.69;;;15.13;73.47
75497;BME280;64074;47.540;19.072;2023-09-30T03:25:58;101073.53;;;15.20;73.27
75497;BME280;64074;47.540;19.072;2023-09-30T03:29:17;101070.91;;;15.15;73.74
75497;BME280;64074;47.540;19.072;2023-09-30T03:32:34;101070.97;;;15.23;73.16
75497;BME280;64074;47.540;19.072;2023-09-30T03:35:55;101070.53;;;15.30;73.27
75497;BME280;64074;47.540;19.072;2023-09-30T03:39:18;101069.91;;;15.33;73.32
75497;BME280;64074;47.540;19.072;2023-09-30T03:42:48;101075.47;;;15.05;73.92
75497;BME280;64074;47.540;19.072;2023-09-30T03:46:01;101072.28;;;15.26;73.25
75497;BME280;64074;47.540;19.072;2023-09-30T03:49:21;101084.25;;;15.16;73.22
75497;BME280;64074;47.540;19.072;2023-09-30T03:52:41;101067.75;;;15.21;73.33
75497;BME280;64074;47.540;19.072;2023-09-30T03:56:04;101077.81;;;14.98;74.15
75497;BME280;64074;47.540;19.072;2023-09-30T03:59:24;101079.44;;;14.99;74.23
75497;BME280;64074;47.540;19.072;2023-09-30T04:02:33;101083.44;;;15.16;74.06
75497;BME280;64074;47.540;19.072;2023-09-30T04:06:02;101074.44;;;15.15;74.53
75497;BME280;64074;47.540;19.072;2023-09-30T04:09:32;101077.88;;;15.07;74.67
75497;BME280;64074;47.540;19.072;2023-09-30T04:12:54;101075.97;;;15.07;75.08
75497;BME280;64074;47.540;19.072;2023-09-30T04:16:12;101077.09;;;15.06;75.32
75497;BME280;64074;47.540;19.072;2023-09-30T04:19:24;101075.25;;;15.16;74.31
75497;BME280;64074;47.540;19.072;2023-09-30T04:22:44;101069.88;;;15.11;75.31
75497;BME280;64074;47.540;19.072;2023-09-30T04:25:56;101079.44;;;14.99;75.80
75497;BME280;64074;47.540;19.072;2023-09-30T04:29:00;101084.88;;;14.99;76.15
75497;BME280;64074;47.540;19.072;2023-09-30T04:32:11;101086.63;;;14.95;76.16
75497;BME280;64074;47.540;19.072;2023-09-30T04:35:33;101082.97;;;14.86;76.95
75497;BME280;64074;47.540;19.072;2023-09-30T04:38:52;101084.63;;;14.87;77.10
75497;BME280;64074;47.540;19.072;2023-09-30T04:41:56;101090.28;;;14.91;77.15
75497;BME280;64074;47.540;19.072;2023-09-30T04:45:04;101089.34;;;14.82;77.54
75497;BME280;64074;47.540;19.072;2023-09-30T04:48:13;101090.16;;;14.96;76.80
75497;BME280;64074;47.540;19.072;2023-09-30T04:51:24;101084.63;;;14.87;77.51
75497;BME280;64074;47.540;19.072;2023-09-30T04:54:43;101093.81;;;14.91;77.00
75497;BME280;64074;47.540;19.072;2023-09-30T04:58:10;101095.19;;;15.02;76.89
75497;BME280;64074;47.540;19.072;2023-09-30T05:01:54;101094.78;;;15.09;76.37
75497;BME280;64074;47.540;19.072;2023-09-30T05:05:04;101091.03;;;15.19;75.89
75497;BME280;64074;47.540;19.072;2023-09-30T05:08:24;101100.59;;;14.94;76.56
75497;BME280;64074;47.540;19.072;2023-09-30T05:11:39;101105.25;;;14.93;76.63
75497;BME280;64074;47.540;19.072;2023-09-30T05:15:09;101109.03;;;15.06;76.19
75497;BME280;64074;47.540;19.072;2023-09-30T05:18:38;101112.25;;;15.22;75.74
75497;BME280;64074;47.540;19.072;2023-09-30T05:22:00;101116.09;;;15.21;75.51
75497;BME280;64074;47.540;19.072;2023-09-30T05:25:15;101116.09;;;15.21;75.16
75497;BME280;64074;47.540;19.072;2023-09-30T05:28:43;101116.69;;;15.31;74.89
75497;BME280;64074;47.540;19.072;2023-09-30T05:31:58;101112.63;;;15.29;75.02
75497;BME280;64074;47.540;19.072;2023-09-30T05:35:02;101122.34;;;15.35;74.94
75497;BME280;64074;47.540;19.072;2023-09-30T05:38:10;101119.38;;;15.45;74.42
75497;BME280;64074;47.540;19.072;2023-09-30T05:41:21;101121.75;;;15.38;74.85
75497;BME280;64074;47.540;19.072;2023-09-30T05:44:38;101120.78;;;15.79;73.03
75497;BME280;64074;47.540;19.072;2023-09-30T05:47:56;101117.44;;;15.82;73.04
75497;BME280;64074;47.540;19.072;2023-09-30T05:51:17;101123.28;;;15.89;73.22
75497;BME280;64074;47.540;19.072;2023-09-30T05:54:42;101128.75;;;16.11;71.76
75497;BME280;64074;47.540;19.072;2023-09-30T05:57:59;101119.13;;;16.22;71.60
75497;BME280;64074;47.540;19.072;2023-09-30T06:01:13;101112.84;;;16.22;71.72
75497;BME280;64074;47.540;19.072;2023-09-30T06:04:20;101128.75;;;16.42;71.40
75497;BME280;64074;47.540;19.072;2023-09-30T06:07:32;101128.91;;;16.46;71.00
75497;BME280;64074;47.540;19.072;2023-09-30T06:10:41;101124.28;;;16.55;70.54
75497;BME280;64074;47.540;19.072;2023-09-30T06:13:55;101130.59;;;16.64;70.40
75497;BME280;64074;47.540;19.072;2023-09-30T06:17:21;101127.00;;;16.55;70.52
75497;BME280;64074;47.540;19.072;2023-09-30T06:20:38;101134.22;;;16.73;70.41
75497;BME280;64074;47.540;19.072;2023-09-30T06:23:58;101129.75;;;16.95;69.73
75497;BME280;64074;47.540;19.072;2023-09-30T06:27:16;101121.59;;;17.20;68.60
75497;BME280;64074;47.540;19.072;2023-09-30T06:30:35;101128.53;;;17.18;68.23
75497;BME280;64074;47.540;19.072;2023-09-30T06:33:58;101131.94;;;17.49;66.81
75497;BME280;64074;47.540;19.072;2023-09-30T06:37:21;101123.72;;;17.49;66.17
75497;BME280;64074;47.540;19.072;2023-09-30T06:40:32;101124.66;;;17.53;65.33
75497;BME280;64074;47.540;19.072;2023-09-30T06:43:52;101125.66;;;17.75;65.78
75497;BME280;64074;47.540;19.072;2023-09-30T06:47:19;101128.72;;;17.91;65.08
75497;BME280;64074;47.540;19.072;2023-09-30T06:50:43;101119.66;;;17.99;65.24
75497;BME280;64074;47.540;19.072;2023-09-30T06:53:58;101132.72;;;18.10;64.83
75497;BME280;64074;47.540;19.072;2023-09-30T06:57:16;101134.28;;;18.29;64.15
75497;BME280;64074;47.540;19.072;2023-09-30T07:00:43;101137.16;;;18.32;64.09
75497;BME280;64074;47.540;19.072;2023-09-30T07:04:12;101140.41;;;18.34;63.98
75497;BME280;64074;47.540;19.072;2023-09-30T07:07:30;101135.97;;;18.51;63.33
75497;BME280;64074;47.540;19.072;2023-09-30T07:10:37;101139.19;;;18.53;63.03
75497;BME280;64074;47.540;19.072;2023-09-30T07:13:42;101148.94;;;18.33;64.11
75497;BME280;64074;47.540;19.072;2023-09-30T07:16:46;101139.19;;;18.61;63.92
75497;BME280;64074;47.540;19.072;2023-09-30T07:19:57;101141.06;;;18.78;63.54
75497;BME280;64074;47.540;19.072;2023-09-30T07:23:18;101142.66;;;18.79;64.32
75497;BME280;64074;47.540;19.072;2023-09-30T07:26:30;101147.47;;;18.91;63.51
75497;BME280;64074;47.540;19.072;2023-09-30T07:30:08;101143.00;;;19.07;62.67
75497;BME280;64074;47.540;19.072;2023-09-30T07:33:29;101152.81;;;19.17;61.68
75497;BME280;64074;47.540;19.072;2023-09-30T07:36:47;101155.09;;;19.15;61.86
75497;BME280;64074;47.540;19.072;2023-09-30T07:39:52;101163.03;;;19.08;62.00
75497;BME280;64074;47.540;19.072;2023-09-30T07:43:21;101151.75;;;19.30;61.66
75497;BME280;64074;47.540;19.072;2023-09-30T07:46:39;101155.13;;;19.35;61.57
75497;BME280;64074;47.540;19.072;2023-09-30T07:49:45;101153.06;;;19.53;61.15
75497;BME280;64074;47.540;19.072;2023-09-30T07:52:50;101162.75;;;19.59;61.02
75497;BME280;64074;47.540;19.072;2023-09-30T07:55:57;101149.00;;;19.59;61.01
75497;BME280;64074;47.540;19.072;2023-09-30T07:59:01;101149.25;;;19.66;60.86
75497;BME280;64074;47.540;19.072;2023-09-30T08:02:13;101151.50;;;19.85;60.50
75497;BME280;64074;47.540;19.072;2023-09-30T08:05:32;101156.91;;;20.27;59.69
75497;BME280;64074;47.540;19.072;2023-09-30T08:08:37;101155.16;;;20.43;59.38
75497;BME280;64074;47.540;19.072;2023-09-30T08:11:45;101157.91;;;20.10;58.72
75497;BME280;64074;47.540;19.072;2023-09-30T08:14:55;101152.09;;;20.24;58.66
75497;BME280;64074;47.540;19.072;2023-09-30T08:18:06;101170.00;;;20.63;58.24
75497;BME280;64074;47.540;19.072;2023-09-30T08:21:28;101161.25;;;20.61;57.85
75497;BME280;64074;47.540;19.072;2023-09-30T08:24:39;101147.84;;;20.84;57.41
75497;BME280;64074;47.540;19.072;2023-09-30T08:27:58;101155.16;;;21.04;56.75
75497;BME280;64074;47.540;19.072;2023-09-30T08:31:06;101156.06;;;21.20;56.33
75497;BME280;64074;47.540;19.072;2023-09-30T08:34:16;101153.09;;;21.26;56.35
75497;BME280;64074;47.540;19.072;2023-09-30T08:37:35;101158.72;;;21.29;56.40
75497;BME280;64074;47.540;19.072;2023-09-30T08:41:05;101148.47;;;21.42;56.66
75497;BME280;64074;47.540;19.072;2023-09-30T08:44:35;101147.53;;;21.50;56.76
75497;BME280;64074;47.540;19.072;2023-09-30T08:47:53;101142.25;;;21.57;55.75
75497;BME280;64074;47.540;19.072;2023-09-30T08:51:05;101140.47;;;21.65;54.68
75497;BME280;64074;47.540;19.072;2023-09-30T08:54:16;101143.03;;;21.58;55.38
75497;BME280;64074;47.540;19.072;2023-09-30T08:57:54;101139.50;;;22.01;51.99
75497;BME280;64074;47.540;19.072;2023-09-30T09:01:20;101130.03;;;22.14;51.13
75497;BME280;64074;47.540;19.072;2023-09-30T09:04:38;101136.03;;;22.32;51.46
75497;BME280;64074;47.540;19.072;2023-09-30T09:07:56;101138.44;;;22.33;51.43
75497;BME280;64074;47.540;19.072;2023-09-30T09:11:14;101134.88;;;22.33;51.42
75497;BME280;64074;47.540;19.072;2023-09-30T09:14:43;101133.44;;;22.55;50.59
75497;BME280;64074;47.540;19.072;2023-09-30T09:18:03;101118.81;;;22.54;50.51
75497;BME280;64074;47.540;19.072;2023-09-30T09:21:25;101134.41;;;22.78;49.75
75497;BME280;64074;47.540;19.072;2023-09-30T09:24:43;101134.16;;;22.99;49.17
75497;BME280;64074;47.540;19.072;2023-09-30T09:27:54;101128.47;;;22.60;49.50
75497;BME280;64074;47.540;19.072;2023-09-30T09:31:31;101126.78;;;22.56;49.15
75497;BME280;64074;47.540;19.072;2023-09-30T09:34:39;101122.31;;;22.67;48.94
75497;BME280;64074;47.540;19.072;2023-09-30T09:37:56;101111.63;;;22.81;49.14
75497;BME280;64074;47.540;19.072;2023-09-30T09:41:06;101123.19;;;22.55;49.36
75497;BME280;64074;47.540;19.072;2023-09-30T09:44:21;101120.81;;;22.38;50.03
75497;BME280;64074;47.540;19.072;2023-09-30T09:47:35;101124.63;;;22.65;48.46
75497;BME280;64074;47.540;19.072;2023-09-30T09:50:46;101125.25;;;22.58;48.72
75497;BME280;64074;47.540;19.072;2023-09-30T09:53:57;101137.75;;;22.36;49.64
75497;BME280;64074;47.540;19.072;2023-09-30T09:57:19;101129.34;;;22.49;49.47
75497;BME280;64074;47.540;19.072;2023-09-30T10:00:25;101116.53;;;22.56;49.61
75497;BME280;64074;47.540;19.072;2023-09-30T10:03:38;101128.59;;;22.04;50.46
75497;BME280;64074;47.540;19.072;2023-09-30T10:06:56;101120.34;;;21.92;51.22
75497;BME280;64074;47.540;19.072;2023-09-30T10:10:10;101121.44;;;21.75;51.85
75497;BME280;64074;47.540;19.072;2023-09-30T10:13:50;101117.75;;;22.27;50.96
75497;BME280;64074;47.540;19.072;2023-09-30T10:17:01;101123.84;;;22.33;50.64
75497;BME280;64074;47.540;19.072;2023-09-30T10:20:27;101111.25;;;22.20;50.94
75497;BME280;64074;47.540;19.072;2023-09-30T10:23:38;101106.34;;;22.60;50.69
75497;BME280;64074;47.540;19.072;2023-09-30T10:34:39;101109.13;;;22.45;50.96
75497;BME280;64074;47.540;19.072;2023-09-30T10:37:49;101109.13;;;22.01;52.42
75497;BME280;64074;47.540;19.072;2023-09-30T10:41:03;101109.47;;;22.27;52.52
75497;BME280;64074;47.540;19.072;2023-09-30T10:50:57;101104.59;;;21.65;53.62
75497;BME280;64074;47.540;19.072;2023-09-30T10:54:13;101103.59;;;21.57;53.65
75497;BME280;64074;47.540;19.072;2023-09-30T10:57:28;101105.41;;;21.37;54.24
75497;BME280;64074;47.540;19.072;2023-09-30T11:00:39;101106.81;;;21.59;54.22
75497;BME280;64074;47.540;19.072;2023-09-30T11:04:04;101100.47;;;21.06;55.50
75497;BME280;64074;47.540;19.072;2023-09-30T11:07:22;101108.06;;;21.09;55.76
75497;BME280;64074;47.540;19.072;2023-09-30T11:10:35;101099.09;;;21.12;55.36
75497;BME280;64074;47.540;19.072;2023-09-30T11:13:57;101104.41;;;20.81;56.30
75497;BME280;64074;47.540;19.072;2023-09-30T11:17:10;101106.03;;;20.94;56.13
75497;BME280;64074;47.540;19.072;2023-09-30T11:20:16;101115.22;;;20.74;57.19
75497;BME280;64074;47.540;19.072;2023-09-30T11:23:22;101112.22;;;20.79;56.94
75497;BME280;64074;47.540;19.072;2023-09-30T11:26:34;101107.31;;;20.60;57.32
75497;BME280;64074;47.540;19.072;2023-09-30T11:29:56;101112.91;;;20.51;57.66
75497;BME280;64074;47.540;19.072;2023-09-30T11:33:24;101120.47;;;20.54;57.87
75497;BME280;64074;47.540;19.072;2023-09-30T11:36:39;101120.97;;;20.11;59.59
75497;BME280;64074;47.540;19.072;2023-09-30T11:40:10;101115.78;;;20.67;58.63
75497;BME280;64074;47.540;19.072;2023-09-30T11:43:25;101119.69;;;20.42;59.40
75497;BME280;64074;47.540;19.072;2023-09-30T11:46:51;101121.13;;;20.39;59.78
75497;BME280;64074;47.540;19.072;2023-09-30T11:49:59;101127.22;;;20.33;60.34
75497;BME280;64074;47.540;19.072;2023-09-30T11:53:16;101126.78;;;20.43;60.27
75497;BME280;64074;47.540;19.072;2023-09-30T11:56:33;101120.88;;;20.32;60.99
75497;BME280;64074;47.540;19.072;2023-09-30T11:59:38;101113.81;;;20.55;60.53
75497;BME280;64074;47.540;19.072;2023-09-30T12:02:48;101110.28;;;20.43;61.17
75497;BME280;64074;47.540;19.072;2023-09-30T12:05:57;101117.66;;;20.30;61.94
75497;BME280;64074;47.540;19.072;2023-09-30T12:09:10;101104.69;;;20.31;62.42
75497;BME280;64074;47.540;19.072;2023-09-30T12:12:19;101105.34;;;20.61;61.63
75497;BME280;64074;47.540;19.072;2023-09-30T12:15:23;101112.78;;;20.48;62.01
75497;BME280;64074;47.540;19.072;2023-09-30T12:18:33;101114.28;;;20.45;62.04
75497;BME280;64074;47.540;19.072;2023-09-30T12:21:56;101104.28;;;20.77;61.35
75497;BME280;64074;47.540;19.072;2023-09-30T12:25:00;101103.75;;;20.60;61.95
75497;BME280;64074;47.540;19.072;2023-09-30T12:28:11;101112.91;;;20.51;62.29
75497;BME280;64074;47.540;19.072;2023-09-30T12:31:29;101097.97;;;20.77;61.61
75497;BME280;64074;47.540;19.072;2023-09-30T12:34:55;101097.50;;;20.99;61.17
75497;BME280;64074;47.540;19.072;2023-09-30T12:38:06;101105.22;;;20.69;62.00
75497;BME280;64074;47.540;19.072;2023-09-30T12:41:16;101100.66;;;20.61;62.60
75497;BME280;64074;47.540;19.072;2023-09-30T12:44:29;101106.97;;;20.62;62.45
75497;BME280;64074;47.540;19.072;2023-09-30T12:47:44;101097.19;;;20.76;62.34
75497;BME280;64074;47.540;19.072;2023-09-30T12:50:55;101091.75;;;21.04;61.67
75497;BME280;64074;47.540;19.072;2023-09-30T12:54:10;101113.69;;;21.01;62.03
75497;BME280;64074;47.540;19.072;2023-09-30T12:57:17;101110.03;;;21.09;61.58
75497;BME280;64074;47.540;19.072;2023-09-30T13:00:22;101112.66;;;21.05;61.65
75497;BME280;64074;47.540;19.072;2023-09-30T13:03:32;101110.44;;;21.23;61.04
75497;BME280;64074;47.540;19.072;2023-09-30T13:06:42;101106.91;;;21.35;61.01
75497;BME280;64074;47.540;19.072;2023-09-30T13:10:01;101098.16;;;21.33;61.02
75497;BME280;64074;47.540;19.072;2023-09-30T13:13:25;101099.31;;;21.19;61.59
75497;BME280;64074;47.540;19.072;2023-09-30T13:16:44;101091.88;;;21.60;60.87
75497;BME280;64074;47.540;19.072;2023-09-30T13:20:14;101086.03;;;21.49;60.94
75497;BME280;64074;47.540;19.072;2023-09-30T13:23:19;101079.78;;;21.80;60.21
75497;BME280;64074;47.540;19.072;2023-09-30T13:26:23;101079.56;;;21.86;59.91
75497;BME280;64074;47.540;19.072;2023-09-30T13:29:31;101075.41;;;21.64;60.45
75497;BME280;64074;47.540;19.072;2023-09-30T13:32:41;101081.13;;;22.15;59.49
75497;BME280;64074;47.540;19.072;2023-09-30T13:35:57;101075.25;;;22.32;58.83
75497;BME280;64074;47.540;19.072;2023-09-30T13:39:12;101071.22;;;22.29;58.42
75497;BME280;64074;47.540;19.072;2023-09-30T13:42:45;101064.19;;;22.63;57.60
75497;BME280;64074;47.540;19.072;2023-09-30T13:45:55;101066.47;;;21.98;58.81
75497;BME280;64074;47.540;19.072;2023-09-30T13:49:00;101068.56;;;22.33;58.26
75497;BME280;64074;47.540;19.072;2023-09-30T13:52:10;101062.06;;;22.41;57.83
75497;BME280;64074;47.540;19.072;2023-09-30T13:55:24;101052.03;;;22.84;57.44
75497;BME280;64074;47.540;19.072;2023-09-30T13:58:56;101050.31;;;23.14;56.12
75497;BME280;64074;47.540;19.072;2023-09-30T14:02:09;101059.00;;;22.62;57.50
75497;BME280;64074;47.540;19.072;2023-09-30T14:05:30;101054.81;;;23.03;56.78
75497;BME280;64074;47.540;19.072;2023-09-30T14:08:44;101054.16;;;22.75;57.00
75497;BME280;64074;47.540;19.072;2023-09-30T14:11:52;101048.59;;;23.06;56.60
75497;BME280;64074;47.540;19.072;2023-09-30T14:14:56;101053.00;;;22.76;57.07
75497;BME280;64074;47.540;19.072;2023-09-30T14:18:06;101047.75;;;22.55;58.27
75497;BME280;64074;47.540;19.072;2023-09-30T14:21:12;101045.41;;;22.72;57.85
75497;BME280;64074;47.540;19.072;2023-09-30T14:24:19;101046.06;;;22.66;58.16
75497;BME280;64074;47.540;19.072;2023-09-30T14:27:26;101032.25;;;22.66;57.71
75497;BME280;64074;47.540;19.072;2023-09-30T14:30:38;101038.22;;;22.84;57.57
75497;BME280;64074;47.540;19.072;2023-09-30T14:33:51;101040.84;;;22.80;57.57
75497;BME280;64074;47.540;19.072;2023-09-30T14:36:56;101035.72;;;22.63;58.01
75497;BME280;64074;47.540;19.072;2023-09-30T14:40:00;101033.84;;;22.67;58.02
75497;BME280;64074;47.540;19.072;2023-09-30T14:43:17;101027.44;;;22.98;57.71
75497;BME280;64074;47.540;19.072;2023-09-30T14:46:49;101024.47;;;23.26;56.95
75497;BME280;64074;47.540;19.072;2023-09-30T14:50:11;101028.50;;;23.09;57.45
75497;BME280;64074;47.540;19.072;2023-09-30T14:53:34;101018.72;;;22.96;57.47
75497;BME280;64074;47.540;19.072;2023-09-30T14:56:45;101029.47;;;22.82;57.22
75497;BME280;64074;47.540;19.072;2023-09-30T14:59:50;101026.59;;;23.13;56.70
75497;BME280;64074;47.540;19.072;2023-09-30T15:03:01;101022.88;;;22.55;58.10
75497;BME280;64074;47.540;19.072;2023-09-30T15:06:25;101020.31;;;22.97;57.12
75497;BME280;64074;47.540;19.072;2023-09-30T15:09:42;101021.84;;;23.14;56.84
75497;BME280;64074;47.540;19.072;2023-09-30T15:13:06;101021.13;;;22.97;58.05
75497;BME280;64074;47.540;19.072;2023-09-30T15:16:20;101028.25;;;22.98;57.95
75497;BME280;64074;47.540;19.072;2023-09-30T15:19:32;101029.69;;;22.57;59.78
75497;BME280;64074;47.540;19.072;2023-09-30T15:22:37;101032.88;;;22.59;59.33
75497;BME280;64074;47.540;19.072;2023-09-30T15:25:42;101024.78;;;22.51;59.39
75497;BME280;64074;47.540;19.072;2023-09-30T15:28:53;101028.25;;;22.48;59.16
75497;BME280;64074;47.540;19.072;2023-09-30T15:32:16;101033.00;;;22.31;60.10
75497;BME280;64074;47.540;19.072;2023-09-30T15:35:42;101025.41;;;21.97;61.07
75497;BME280;64074;47.540;19.072;2023-09-30T15:39:00;101030.56;;;21.98;60.95
75497;BME280;64074;47.540;19.072;2023-09-30T15:42:20;101026.56;;;21.96;61.16
75497;BME280;64074;47.540;19.072;2023-09-30T15:45:43;101024.56;;;21.80;61.77
75497;BME280;64074;47.540;19.072;2023-09-30T15:49:04;101029.75;;;21.82;62.09
75497;BME280;64074;47.540;19.072;2023-09-30T15:52:25;101031.53;;;21.90;61.90
75497;BME280;64074;47.540;19.072;2023-09-30T15:55:33;101038.94;;;21.86;62.18
75497;BME280;64074;47.540;19.072;2023-09-30T15:58:38;101022.97;;;21.79;62.45
75497;BME280;64074;47.540;19.072;2023-09-30T16:01:45;101029.66;;;21.78;62.90
75497;BME280;64074;47.540;19.072;2023-09-30T16:04:49;101023.31;;;21.78;62.98
75497;BME280;64074;47.540;19.072;2023-09-30T16:08:02;101027.59;;;21.60;63.48
75497;BME280;64074;47.540;19.072;2023-09-30T16:11:15;101031.28;;;21.52;63.84
75497;BME280;64074;47.540;19.072;2023-09-30T16:14:24;101039.09;;;21.22;64.74
75497;BME280;64074;47.540;19.072;2023-09-30T16:17:28;101045.75;;;21.33;64.79
75497;BME280;64074;47.540;19.072;2023-09-30T16:20:38;101047.59;;;21.29;64.64
75497;BME280;64074;47.540;19.072;2023-09-30T16:24:03;101049.59;;;21.44;64.13
75497;BME280;64074;47.540;19.072;2023-09-30T16:27:11;101054.72;;;21.17;65.37
75497;BME280;64074;47.540;19.072;2023-09-30T16:30:20;101052.31;;;21.28;64.66
75497;BME280;64074;47.540;19.072;2023-09-30T16:33:34;101047.00;;;21.35;64.55
75497;BME280;64074;47.540;19.072;2023-09-30T16:36:49;101052.31;;;21.28;64.71
75497;BME280;64074;47.540;19.072;2023-09-30T16:39:59;101051.16;;;21.29;64.65
75497;BME280;64074;47.540;19.072;2023-09-30T16:43:17;101065.31;;;21.15;64.99
75497;BME280;64074;47.540;19.072;2023-09-30T16:46:39;101057.91;;;20.92;65.82
75497;BME280;64074;47.540;19.072;2023-09-30T16:49:49;101057.13;;;21.19;65.02
75497;BME280;64074;47.540;19.072;2023-09-30T16:53:19;101054.88;;;21.09;65.20
75497;BME280;64074;47.540;19.072;2023-09-30T16:56:30;101062.44;;;21.12;65.33
75497;BME280;64074;47.540;19.072;2023-09-30T17:00:08;101060.25;;;21.05;65.52
75497;BME280;64074;47.540;19.072;2023-09-30T17:03:40;101068.00;;;20.87;66.12